This is the latest recevied weather packets stored in our database for station/object KE5VT. If no packets are shown the sender has not sent any weather packets the latest 10 day(s).
| Time | Temp. | Humidity | Pressure | Rain* | Wind** | Luminosity | Snow |
|---|---|---|---|---|---|---|---|
| 1788023614 | 28.89° C | 72% | 1018.6 hPa | 0 mm | - | 386 W/m² | - |
| 1788023310 | 30° C | 72% | 1018.4 hPa | 0 mm | - | 660 W/m² | - |
| 1788023004 | 30° C | 70% | 1018.4 hPa | 0 mm | - | 640 W/m² | - |
| 1788022702 | 30.56° C | 67% | 1018.3 hPa | 0 mm | - | 440 W/m² | - |
| 1788022400 | 29.44° C | 70% | 1018.3 hPa | 0 mm | - | 593 W/m² | - |
| 1788022100 | 27.78° C | 76% | 1018.4 hPa | 0 mm | - | 638 W/m² | - |
| 1788021794 | 28.33° C | 76% | 1018.5 hPa | 0 mm | - | 672 W/m² | - |
| 1788021494 | 29.44° C | 73% | 1018.6 hPa | 0 mm | - | 667 W/m² | - |
| 1788021193 | 27.78° C | 76% | 1018.4 hPa | 0 mm | - | 668 W/m² | - |
| 1788020889 | 27.78° C | 77% | 1018.3 hPa | 0 mm | - | 669 W/m² | - |
| 1788020583 | 27.22° C | 77% | 1018.4 hPa | 0 mm | - | 654 W/m² | - |
| 1788020280 | 28.33° C | 77% | 1018.5 hPa | 0 mm | - | 665 W/m² | - |
| 1788019975 | 27.78° C | 77% | 1018.5 hPa | 0 mm | - | 629 W/m² | - |
| 1788019675 | 27.78° C | 76% | 1018.5 hPa | 0 mm | - | 627 W/m² | - |
| 1788019369 | 27.78° C | 76% | 1018.4 hPa | 0 mm | - | 639 W/m² | - |
| 1788019067 | 26.67° C | 81% | 1018.3 hPa | 0 mm | - | 443 W/m² | - |
| 1788018767 | 26.11° C | 81% | 1018.4 hPa | 0 mm | - | 616 W/m² | - |
| 1788018462 | 26.11° C | 81% | 1018.5 hPa | 0 mm | - | 610 W/m² | - |
| 1788018161 | 26.11° C | 82% | 1018.4 hPa | 0 mm | - | 560 W/m² | - |
| 1788017858 | 25.56° C | 83% | 1018.4 hPa | 0 mm | - | 554 W/m² | - |
| 1788017553 | 25.56° C | 84% | 1018.5 hPa | 0 mm | - | 497 W/m² | - |
| 1788017250 | 25.56° C | 83% | 1018.5 hPa | 0 mm | - | 515 W/m² | - |
| 1788016946 | 25.56° C | 84% | 1018.6 hPa | 0 mm | - | 564 W/m² | - |
| 1788016644 | 25° C | 86% | 1018.5 hPa | 0 mm | - | 349 W/m² | - |
| 1788016343 | 25° C | 86% | 1018.4 hPa | 0 mm | - | 510 W/m² | - |
* Rain latest hour (hover to see other rain measurements)
** Current wind speed in m/s (hover to see current wind gust speed)